sensor_id;sensor_type;location;lat;lon;timestamp;pressure;altitude;pressure_sealevel;temperature;humidity
75026;BME280;63591;50.080;8.286;2022-11-20T00:00:28;99292.56;;;14.83;63.95
75026;BME280;63591;50.080;8.286;2022-11-20T00:02:54;99295.19;;;14.83;63.83
75026;BME280;63591;50.080;8.286;2022-11-20T00:05:19;99297.00;;;14.83;64.19
75026;BME280;63591;50.080;8.286;2022-11-20T00:07:46;99293.38;;;14.84;63.90
75026;BME280;63591;50.080;8.286;2022-11-20T00:10:11;99289.91;;;14.83;63.93
75026;BME280;63591;50.080;8.286;2022-11-20T00:12:37;99286.25;;;14.84;64.20
75026;BME280;63591;50.080;8.286;2022-11-20T00:15:03;99281.81;;;14.85;64.27
75026;BME280;63591;50.080;8.286;2022-11-20T00:17:28;99279.81;;;14.87;64.02
75026;BME280;63591;50.080;8.286;2022-11-20T00:19:53;99277.34;;;14.85;64.05
75026;BME280;63591;50.080;8.286;2022-11-20T00:22:19;99278.97;;;14.86;64.10
75026;BME280;63591;50.080;8.286;2022-11-20T00:24:44;99281.63;;;14.86;64.26
75026;BME280;63591;50.080;8.286;2022-11-20T00:27:09;99288.53;;;14.87;64.06
75026;BME280;63591;50.080;8.286;2022-11-20T00:29:34;99284.25;;;14.86;64.33
75026;BME280;63591;50.080;8.286;2022-11-20T00:32:00;99291.19;;;14.87;64.28
75026;BME280;63591;50.080;8.286;2022-11-20T00:34:25;99283.91;;;14.89;64.17
75026;BME280;63591;50.080;8.286;2022-11-20T00:36:50;99279.22;;;14.91;64.18
75026;BME280;63591;50.080;8.286;2022-11-20T00:39:16;99274.97;;;14.90;63.89
75026;BME280;63591;50.080;8.286;2022-11-20T00:41:41;99275.97;;;14.89;64.36
75026;BME280;63591;50.080;8.286;2022-11-20T00:44:06;99283.06;;;14.89;64.28
75026;BME280;63591;50.080;8.286;2022-11-20T00:46:32;99281.25;;;14.89;64.19
75026;BME280;63591;50.080;8.286;2022-11-20T00:48:57;99284.91;;;14.88;64.10
75026;BME280;63591;50.080;8.286;2022-11-20T00:51:25;99275.31;;;14.87;63.91
75026;BME280;63591;50.080;8.286;2022-11-20T00:53:51;99274.34;;;14.88;63.97
75026;BME280;63591;50.080;8.286;2022-11-20T00:56:18;99269.06;;;14.88;64.00
75026;BME280;63591;50.080;8.286;2022-11-20T00:58:45;99277.00;;;14.88;64.13
75026;BME280;63591;50.080;8.286;2022-11-20T01:03:39;99276.53;;;14.85;64.13
75026;BME280;63591;50.080;8.286;2022-11-20T01:06:10;99273.06;;;14.84;64.09
75026;BME280;63591;50.080;8.286;2022-11-20T01:08:37;99272.88;;;14.86;63.72
75026;BME280;63591;50.080;8.286;2022-11-20T01:11:13;99274.72;;;14.85;63.51
75026;BME280;63591;50.080;8.286;2022-11-20T01:13:38;99274.53;;;14.87;63.75
75026;BME280;63591;50.080;8.286;2022-11-20T01:16:11;99265.97;;;14.85;63.68
75026;BME280;63591;50.080;8.286;2022-11-20T01:18:38;99281.63;;;14.86;63.61
75026;BME280;63591;50.080;8.286;2022-11-20T01:21:06;99277.34;;;14.85;63.30
75026;BME280;63591;50.080;8.286;2022-11-20T01:23:33;99284.44;;;14.85;63.19
75026;BME280;63591;50.080;8.286;2022-11-20T01:26:04;99276.72;;;14.83;63.31
75026;BME280;63591;50.080;8.286;2022-11-20T01:28:30;99275.06;;;14.82;63.50
75026;BME280;63591;50.080;8.286;2022-11-20T01:30:55;99283.19;;;14.81;63.49
75026;BME280;63591;50.080;8.286;2022-11-20T01:33:21;99274.44;;;14.80;63.67
75026;BME280;63591;50.080;8.286;2022-11-20T01:35:46;99268.31;;;14.80;63.43
75026;BME280;63591;50.080;8.286;2022-11-20T01:38:11;99271.78;;;14.80;63.77
75026;BME280;63591;50.080;8.286;2022-11-20T01:40:37;99271.59;;;14.82;63.59
75026;BME280;63591;50.080;8.286;2022-11-20T01:43:19;99277.25;;;14.78;63.44
75026;BME280;63591;50.080;8.286;2022-11-20T01:48:15;99271.59;;;14.82;63.15
75026;BME280;63591;50.080;8.286;2022-11-20T01:50:42;99268.13;;;14.81;63.54
75026;BME280;63591;50.080;8.286;2022-11-20T01:53:11;99270.78;;;14.81;63.33
75026;BME280;63591;50.080;8.286;2022-11-20T01:55:45;99268.53;;;14.78;63.13
75026;BME280;63591;50.080;8.286;2022-11-20T01:58:13;99264.06;;;14.78;63.45
75026;BME280;63591;50.080;8.286;2022-11-20T02:00:40;99262.22;;;14.79;63.42
75026;BME280;63591;50.080;8.286;2022-11-20T02:03:09;99255.09;;;14.80;63.14
75026;BME280;63591;50.080;8.286;2022-11-20T02:05:40;99252.47;;;14.80;62.87
75026;BME280;63591;50.080;8.286;2022-11-20T02:08:08;99249.03;;;14.79;63.07
75026;BME280;63591;50.080;8.286;2022-11-20T02:10:34;99246.38;;;14.79;63.12
75026;BME280;63591;50.080;8.286;2022-11-20T02:13:00;99248.00;;;14.80;63.03
75026;BME280;63591;50.080;8.286;2022-11-20T02:15:44;99242.91;;;14.78;63.13
75026;BME280;63591;50.080;8.286;2022-11-20T02:18:11;99250.03;;;14.78;62.73
75026;BME280;63591;50.080;8.286;2022-11-20T02:20:40;99250.03;;;14.78;62.71
75026;BME280;63591;50.080;8.286;2022-11-20T02:23:17;99253.63;;;14.77;62.76
75026;BME280;63591;50.080;8.286;2022-11-20T02:25:46;99251.81;;;14.77;63.08
75026;BME280;63591;50.080;8.286;2022-11-20T02:28:12;99247.41;;;14.78;62.78
75026;BME280;63591;50.080;8.286;2022-11-20T02:30:39;99242.13;;;14.78;62.86
75026;BME280;63591;50.080;8.286;2022-11-20T02:33:04;99241.44;;;14.76;62.87
75026;BME280;63591;50.080;8.286;2022-11-20T02:37:56;99226.41;;;14.76;62.71
75026;BME280;63591;50.080;8.286;2022-11-20T02:40:23;99229.84;;;14.77;62.87
75026;BME280;63591;50.080;8.286;2022-11-20T02:42:52;99225.78;;;14.74;63.15
75026;BME280;63591;50.080;8.286;2022-11-20T02:45:17;99226.41;;;14.76;62.90
75026;BME280;63591;50.080;8.286;2022-11-20T02:47:43;99229.06;;;14.76;62.79
75026;BME280;63591;50.080;8.286;2022-11-20T02:50:08;99227.22;;;14.77;62.95
75026;BME280;63591;50.080;8.286;2022-11-20T02:52:33;99227.22;;;14.77;62.96
75026;BME280;63591;50.080;8.286;2022-11-20T02:54:59;99228.03;;;14.77;62.95
75026;BME280;63591;50.080;8.286;2022-11-20T02:57:24;99225.59;;;14.76;63.13
75026;BME280;63591;50.080;8.286;2022-11-20T02:59:49;99239.63;;;14.76;62.96
75026;BME280;63591;50.080;8.286;2022-11-20T03:02:15;99238.78;;;14.76;62.49
75026;BME280;63591;50.080;8.286;2022-11-20T03:04:40;99232.69;;;14.75;62.31
75026;BME280;63591;50.080;8.286;2022-11-20T03:07:07;99230.03;;;14.75;62.80
75026;BME280;63591;50.080;8.286;2022-11-20T03:09:32;99231.88;;;14.75;62.54
75026;BME280;63591;50.080;8.286;2022-11-20T03:11:58;99229.25;;;14.75;62.46
75026;BME280;63591;50.080;8.286;2022-11-20T03:14:23;99237.16;;;14.75;62.40
75026;BME280;63591;50.080;8.286;2022-11-20T03:16:48;99247.09;;;14.73;62.42
75026;BME280;63591;50.080;8.286;2022-11-20T03:19:13;99241.63;;;14.74;62.81
75026;BME280;63591;50.080;8.286;2022-11-20T03:21:39;99247.09;;;14.73;62.40
75026;BME280;63591;50.080;8.286;2022-11-20T03:24:05;99238.16;;;14.74;62.41
75026;BME280;63591;50.080;8.286;2022-11-20T03:26:30;99226.78;;;14.73;62.43
75026;BME280;63591;50.080;8.286;2022-11-20T03:29:00;99220.66;;;14.73;62.64
75026;BME280;63591;50.080;8.286;2022-11-20T03:31:29;99219.66;;;14.74;62.63
75026;BME280;63591;50.080;8.286;2022-11-20T03:33:56;99210.94;;;14.73;62.80
75026;BME280;63591;50.080;8.286;2022-11-20T03:36:22;99199.53;;;14.73;62.39
75026;BME280;63591;50.080;8.286;2022-11-20T03:38:48;99224.34;;;14.72;62.85
75026;BME280;63591;50.080;8.286;2022-11-20T03:41:16;99246.25;;;14.72;62.91
75026;BME280;63591;50.080;8.286;2022-11-20T03:43:46;99237.34;;;14.73;62.55
75026;BME280;63591;50.080;8.286;2022-11-20T03:46:11;99227.59;;;14.74;62.72
75026;BME280;63591;50.080;8.286;2022-11-20T03:48:37;99235.50;;;14.74;62.58
75026;BME280;63591;50.080;8.286;2022-11-20T03:51:16;99228.59;;;14.73;62.55
75026;BME280;63591;50.080;8.286;2022-11-20T03:53:43;99224.94;;;14.74;62.58
75026;BME280;63591;50.080;8.286;2022-11-20T03:56:10;99211.56;;;14.75;62.38
75026;BME280;63591;50.080;8.286;2022-11-20T03:58:37;99217.84;;;14.74;62.79
75026;BME280;63591;50.080;8.286;2022-11-20T04:01:12;99216.22;;;14.73;62.57
75026;BME280;63591;50.080;8.286;2022-11-20T04:03:38;99217.00;;;14.74;62.83
75026;BME280;63591;50.080;8.286;2022-11-20T04:06:06;99209.28;;;14.72;62.68
75026;BME280;63591;50.080;8.286;2022-11-20T04:08:32;99204.00;;;14.72;62.76
75026;BME280;63591;50.080;8.286;2022-11-20T04:11:09;99196.91;;;14.73;62.41
75026;BME280;63591;50.080;8.286;2022-11-20T04:13:34;99198.53;;;14.74;62.75
75026;BME280;63591;50.080;8.286;2022-11-20T04:15:59;99203.63;;;14.75;62.84
75026;BME280;63591;50.080;8.286;2022-11-20T04:18:24;99192.25;;;14.75;62.39
75026;BME280;63591;50.080;8.286;2022-11-20T04:20:50;99189.81;;;14.73;62.57
75026;BME280;63591;50.080;8.286;2022-11-20T04:23:15;99189.81;;;14.73;62.51
75026;BME280;63591;50.080;8.286;2022-11-20T04:25:40;99198.53;;;14.74;62.76
75026;BME280;63591;50.080;8.286;2022-11-20T04:28:06;99194.91;;;14.75;62.20
75026;BME280;63591;50.080;8.286;2022-11-20T04:30:31;99188.97;;;14.73;62.90
75026;BME280;63591;50.080;8.286;2022-11-20T04:32:56;99189.81;;;14.73;62.81
75026;BME280;63591;50.080;8.286;2022-11-20T04:35:21;99209.09;;;14.74;62.39
75026;BME280;63591;50.080;8.286;2022-11-20T04:37:47;99218.69;;;14.75;62.64
75026;BME280;63591;50.080;8.286;2022-11-20T04:40:12;99211.72;;;14.74;62.28
75026;BME280;63591;50.080;8.286;2022-11-20T04:42:37;99219.66;;;14.74;62.65
75026;BME280;63591;50.080;8.286;2022-11-20T04:45:03;99203.00;;;14.73;62.27
75026;BME280;63591;50.080;8.286;2022-11-20T04:47:28;99207.47;;;14.73;62.71
75026;BME280;63591;50.080;8.286;2022-11-20T04:49:54;99204.00;;;14.72;62.26
75026;BME280;63591;50.080;8.286;2022-11-20T04:52:19;99196.06;;;14.72;62.43
75026;BME280;63591;50.080;8.286;2022-11-20T04:54:44;99208.47;;;14.72;62.48
75026;BME280;63591;50.080;8.286;2022-11-20T04:57:10;99204.81;;;14.73;62.64
75026;BME280;63591;50.080;8.286;2022-11-20T04:59:35;99195.28;;;14.72;62.29
75026;BME280;63591;50.080;8.286;2022-11-20T05:02:00;99196.25;;;14.71;62.46
75026;BME280;63591;50.080;8.286;2022-11-20T05:04:26;99200.56;;;14.72;62.34
75026;BME280;63591;50.080;8.286;2022-11-20T05:06:51;99199.72;;;14.71;62.70
75026;BME280;63591;50.080;8.286;2022-11-20T05:09:16;99193.63;;;14.71;62.49
75026;BME280;63591;50.080;8.286;2022-11-20T05:11:41;99184.88;;;14.70;62.64
75026;BME280;63591;50.080;8.286;2022-11-20T05:14:07;99182.06;;;14.72;62.53
75026;BME280;63591;50.080;8.286;2022-11-20T05:16:34;99185.50;;;14.72;62.57
75026;BME280;63591;50.080;8.286;2022-11-20T05:18:59;99189.16;;;14.71;62.37
75026;BME280;63591;50.080;8.286;2022-11-20T05:21:24;99183.03;;;14.71;62.39
75026;BME280;63591;50.080;8.286;2022-11-20T05:23:50;99189.16;;;14.71;62.33
75026;BME280;63591;50.080;8.286;2022-11-20T05:26:18;99190.97;;;14.71;62.34
75026;BME280;63591;50.080;8.286;2022-11-20T05:28:43;99200.56;;;14.72;62.18
75026;BME280;63591;50.080;8.286;2022-11-20T05:31:11;99191.81;;;14.71;62.16
75026;BME280;63591;50.080;8.286;2022-11-20T05:33:39;99189.16;;;14.71;62.04
75026;BME280;63591;50.080;8.286;2022-11-20T05:36:05;99193.63;;;14.71;62.28
75026;BME280;63591;50.080;8.286;2022-11-20T05:38:31;99190.97;;;14.71;61.96
75026;BME280;63591;50.080;8.286;2022-11-20T05:41:06;99185.06;;;14.69;62.17
75026;BME280;63591;50.080;8.286;2022-11-20T05:43:36;99191.97;;;14.70;62.07
75026;BME280;63591;50.080;8.286;2022-11-20T05:46:03;99187.72;;;14.69;62.14
75026;BME280;63591;50.080;8.286;2022-11-20T05:48:28;99194.63;;;14.70;61.82
75026;BME280;63591;50.080;8.286;2022-11-20T05:50:54;99192.16;;;14.68;62.25
75026;BME280;63591;50.080;8.286;2022-11-20T05:53:19;99197.44;;;14.68;61.97
75026;BME280;63591;50.080;8.286;2022-11-20T05:55:44;99188.50;;;14.69;62.37
75026;BME280;63591;50.080;8.286;2022-11-20T05:58:09;99190.34;;;14.69;62.09
75026;BME280;63591;50.080;8.286;2022-11-20T06:00:35;99196.44;;;14.69;61.98
75026;BME280;63591;50.080;8.286;2022-11-20T06:03:01;99185.06;;;14.69;62.00
75026;BME280;63591;50.080;8.286;2022-11-20T06:05:26;99185.88;;;14.69;61.93
75026;BME280;63591;50.080;8.286;2022-11-20T06:07:51;99183.41;;;14.68;62.05
75026;BME280;63591;50.080;8.286;2022-11-20T06:10:17;99182.44;;;14.69;62.24
75026;BME280;63591;50.080;8.286;2022-11-20T06:12:45;99176.31;;;14.68;62.12
75026;BME280;63591;50.080;8.286;2022-11-20T06:15:10;99182.44;;;14.69;62.15
75026;BME280;63591;50.080;8.286;2022-11-20T06:17:36;99186.06;;;14.68;61.78
75026;BME280;63591;50.080;8.286;2022-11-20T06:20:01;99182.44;;;14.69;61.87
75026;BME280;63591;50.080;8.286;2022-11-20T06:22:26;99172.84;;;14.68;61.88
75026;BME280;63591;50.080;8.286;2022-11-20T06:24:52;99187.72;;;14.69;62.13
75026;BME280;63591;50.080;8.286;2022-11-20T06:27:17;99179.78;;;14.69;62.16
75026;BME280;63591;50.080;8.286;2022-11-20T06:29:42;99166.59;;;14.69;62.00
75026;BME280;63591;50.080;8.286;2022-11-20T06:32:08;99166.59;;;14.69;62.23
75026;BME280;63591;50.080;8.286;2022-11-20T06:34:33;99169.22;;;14.69;62.31
75026;BME280;63591;50.080;8.286;2022-11-20T06:36:58;99171.69;;;14.70;62.26
75026;BME280;63591;50.080;8.286;2022-11-20T06:39:24;99169.22;;;14.69;62.05
75026;BME280;63591;50.080;8.286;2022-11-20T06:41:49;99161.91;;;14.71;62.21
75026;BME280;63591;50.080;8.286;2022-11-20T06:44:14;99169.03;;;14.70;62.24
75026;BME280;63591;50.080;8.286;2022-11-20T06:46:39;99172.66;;;14.69;62.12
75026;BME280;63591;50.080;8.286;2022-11-20T06:49:05;99178.78;;;14.70;62.22
75026;BME280;63591;50.080;8.286;2022-11-20T06:51:30;99176.31;;;14.68;62.24
75026;BME280;63591;50.080;8.286;2022-11-20T06:53:56;99176.31;;;14.68;62.02
75026;BME280;63591;50.080;8.286;2022-11-20T06:56:21;99183.41;;;14.68;62.25
75026;BME280;63591;50.080;8.286;2022-11-20T06:58:46;99187.91;;;14.67;61.73
75026;BME280;63591;50.080;8.286;2022-11-20T07:01:13;99183.41;;;14.68;62.02
75026;BME280;63591;50.080;8.286;2022-11-20T07:03:39;99189.72;;;14.66;61.97
75026;BME280;63591;50.080;8.286;2022-11-20T07:06:05;99192.16;;;14.68;62.24
75026;BME280;63591;50.080;8.286;2022-11-20T07:08:31;99192.34;;;14.66;62.25
75026;BME280;63591;50.080;8.286;2022-11-20T07:10:58;99195.00;;;14.66;62.19
75026;BME280;63591;50.080;8.286;2022-11-20T07:13:24;99199.25;;;14.68;62.34
75026;BME280;63591;50.080;8.286;2022-11-20T07:15:49;99201.91;;;14.68;62.23
75026;BME280;63591;50.080;8.286;2022-11-20T07:18:14;99199.47;;;14.66;62.01
75026;BME280;63591;50.080;8.286;2022-11-20T07:20:40;99199.84;;;14.63;61.56
75026;BME280;63591;50.080;8.286;2022-11-20T07:23:05;99202.03;;;14.59;61.57
75026;BME280;63591;50.080;8.286;2022-11-20T07:25:30;99201.38;;;14.57;61.17
75026;BME280;63591;50.080;8.286;2022-11-20T07:27:59;99192.19;;;14.53;61.19
75026;BME280;63591;50.080;8.286;2022-11-20T07:30:25;99203.59;;;14.53;61.11
75026;BME280;63591;50.080;8.286;2022-11-20T07:32:52;99199.13;;;14.54;60.98
75026;BME280;63591;50.080;8.286;2022-11-20T07:35:18;99195.50;;;14.55;61.29
75026;BME280;63591;50.080;8.286;2022-11-20T07:37:43;99202.41;;;14.56;61.32
75026;BME280;63591;50.080;8.286;2022-11-20T07:40:14;99193.47;;;14.57;61.43
75026;BME280;63591;50.080;8.286;2022-11-20T07:42:53;99203.03;;;14.58;61.27
75026;BME280;63591;50.080;8.286;2022-11-20T07:45:20;99206.31;;;14.60;61.47
75026;BME280;63591;50.080;8.286;2022-11-20T07:47:46;99208.13;;;14.60;61.24
75026;BME280;63591;50.080;8.286;2022-11-20T07:50:12;99204.66;;;14.59;61.14
75026;BME280;63591;50.080;8.286;2022-11-20T07:52:38;99215.22;;;14.59;61.21
75026;BME280;63591;50.080;8.286;2022-11-20T07:55:03;99211.94;;;14.57;60.88
75026;BME280;63591;50.080;8.286;2022-11-20T07:57:29;99221.91;;;14.55;60.91
75026;BME280;63591;50.080;8.286;2022-11-20T07:59:54;99219.44;;;14.53;61.08
75026;BME280;63591;50.080;8.286;2022-11-20T08:02:20;99218.59;;;14.53;60.57
75026;BME280;63591;50.080;8.286;2022-11-20T08:04:45;99221.44;;;14.51;60.76
75026;BME280;63591;50.080;8.286;2022-11-20T08:07:10;99225.09;;;14.50;60.89
75026;BME280;63591;50.080;8.286;2022-11-20T08:09:35;99211.06;;;14.50;60.29
75026;BME280;63591;50.080;8.286;2022-11-20T08:12:01;99214.06;;;14.47;60.44
75026;BME280;63591;50.080;8.286;2022-11-20T08:14:45;99226.81;;;14.43;60.42
75026;BME280;63591;50.080;8.286;2022-11-20T08:17:10;99220.91;;;14.41;60.26
75026;BME280;63591;50.080;8.286;2022-11-20T08:19:35;99226.38;;;14.39;59.80
75026;BME280;63591;50.080;8.286;2022-11-20T08:22:01;99228.38;;;14.37;59.65
75026;BME280;63591;50.080;8.286;2022-11-20T08:24:26;99230.19;;;14.37;60.05
75026;BME280;63591;50.080;8.286;2022-11-20T08:26:52;99236.50;;;14.36;59.66
75026;BME280;63591;50.080;8.286;2022-11-20T08:29:17;99236.66;;;14.34;59.82
75026;BME280;63591;50.080;8.286;2022-11-20T08:31:43;99240.94;;;14.35;60.05
75026;BME280;63591;50.080;8.286;2022-11-20T08:34:08;99242.94;;;14.33;59.95
75026;BME280;63591;50.080;8.286;2022-11-20T08:36:34;99242.94;;;14.33;59.63
75026;BME280;63591;50.080;8.286;2022-11-20T08:39:00;99242.94;;;14.33;59.50
75026;BME280;63591;50.080;8.286;2022-11-20T08:41:25;99244.78;;;14.33;59.81
75026;BME280;63591;50.080;8.286;2022-11-20T08:43:57;99238.84;;;14.31;59.39
75026;BME280;63591;50.080;8.286;2022-11-20T08:46:30;99240.66;;;14.30;59.78
75026;BME280;63591;50.080;8.286;2022-11-20T08:48:58;99239.69;;;14.31;59.76
75026;BME280;63591;50.080;8.286;2022-11-20T08:51:23;99244.13;;;14.31;59.38
75026;BME280;63591;50.080;8.286;2022-11-20T08:53:48;99253.84;;;14.30;59.39
75026;BME280;63591;50.080;8.286;2022-11-20T08:56:14;99253.84;;;14.30;59.64
75026;BME280;63591;50.080;8.286;2022-11-20T08:58:40;99254.88;;;14.29;59.78
75026;BME280;63591;50.080;8.286;2022-11-20T09:01:05;99259.34;;;14.28;59.84
75026;BME280;63591;50.080;8.286;2022-11-20T09:03:31;99254.06;;;14.28;59.57
75026;BME280;63591;50.080;8.286;2022-11-20T09:06:00;99248.97;;;14.27;59.78
75026;BME280;63591;50.080;8.286;2022-11-20T09:08:27;99251.44;;;14.28;59.73
75026;BME280;63591;50.080;8.286;2022-11-20T09:10:53;99256.88;;;14.27;59.44
75026;BME280;63591;50.080;8.286;2022-11-20T09:13:20;99250.78;;;14.26;59.66
75026;BME280;63591;50.080;8.286;2022-11-20T09:15:45;99248.13;;;14.26;59.29
75026;BME280;63591;50.080;8.286;2022-11-20T09:18:10;99247.31;;;14.26;59.66
75026;BME280;63591;50.080;8.286;2022-11-20T09:20:36;99254.25;;;14.27;59.56
75026;BME280;63591;50.080;8.286;2022-11-20T09:23:02;99248.13;;;14.26;59.50
75026;BME280;63591;50.080;8.286;2022-11-20T09:25:28;99244.66;;;14.26;59.46
75026;BME280;63591;50.080;8.286;2022-11-20T09:27:57;99251.97;;;14.24;59.49
75026;BME280;63591;50.080;8.286;2022-11-20T09:30:23;99248.50;;;14.23;59.64
75026;BME280;63591;50.080;8.286;2022-11-20T09:32:52;99244.41;;;14.21;59.45
75026;BME280;63591;50.080;8.286;2022-11-20T09:35:17;99243.41;;;14.22;59.30
75026;BME280;63591;50.080;8.286;2022-11-20T09:37:43;99241.94;;;14.19;59.39
75026;BME280;63591;50.080;8.286;2022-11-20T09:40:26;99239.66;;;14.16;59.12
75026;BME280;63591;50.080;8.286;2022-11-20T09:45:50;99249.41;;;14.15;59.00
75026;BME280;63591;50.080;8.286;2022-11-20T09:48:33;99239.84;;;14.14;59.29
75026;BME280;63591;50.080;8.286;2022-11-20T09:51:06;99245.97;;;14.15;59.38
75026;BME280;63591;50.080;8.286;2022-11-20T09:54:09;99243.69;;;14.12;58.77
75026;BME280;63591;50.080;8.286;2022-11-20T09:56:41;99252.22;;;14.14;58.89
75026;BME280;63591;50.080;8.286;2022-11-20T09:59:14;99247.78;;;14.14;59.10
75026;BME280;63591;50.080;8.286;2022-11-20T10:01:42;99250.41;;;14.14;59.17
75026;BME280;63591;50.080;8.286;2022-11-20T10:04:13;99254.06;;;14.13;58.88
75026;BME280;63591;50.080;8.286;2022-11-20T10:06:56;99249.75;;;14.12;58.79
75026;BME280;63591;50.080;8.286;2022-11-20T10:09:30;99244.47;;;14.12;58.91
75026;BME280;63591;50.080;8.286;2022-11-20T10:12:14;99250.78;;;14.11;58.81
75026;BME280;63591;50.080;8.286;2022-11-20T10:14:56;99246.94;;;14.14;58.87
75026;BME280;63591;50.080;8.286;2022-11-20T10:20:33;99237.88;;;14.17;58.93
75026;BME280;63591;50.080;8.286;2022-11-20T10:23:47;99225.66;;;14.15;59.03
75026;BME280;63591;50.080;8.286;2022-11-20T10:26:19;99221.63;;;14.20;59.00
75026;BME280;63591;50.080;8.286;2022-11-20T10:31:33;99218.38;;;14.18;59.17
75026;BME280;63591;50.080;8.286;2022-11-20T10:34:02;99210.28;;;14.19;59.32
75026;BME280;63591;50.080;8.286;2022-11-20T10:36:35;99211.25;;;14.18;59.08
75026;BME280;63591;50.080;8.286;2022-11-20T10:41:53;99202.34;;;14.19;59.06
75026;BME280;63591;50.080;8.286;2022-11-20T10:44:21;99202.53;;;14.18;59.45
75026;BME280;63591;50.080;8.286;2022-11-20T10:47:12;99204.16;;;14.19;59.17
75026;BME280;63591;50.080;8.286;2022-11-20T10:49:38;99202.34;;;14.19;59.10
75026;BME280;63591;50.080;8.286;2022-11-20T10:54:42;99201.53;;;14.19;59.51
75026;BME280;63591;50.080;8.286;2022-11-20T11:00:09;99202.19;;;14.21;59.20
75026;BME280;63591;50.080;8.286;2022-11-20T11:02:46;99204.16;;;14.19;59.13
75026;BME280;63591;50.080;8.286;2022-11-20T11:05:22;99194.44;;;14.19;59.40
75026;BME280;63591;50.080;8.286;2022-11-20T11:07:50;99194.44;;;14.19;59.26
75026;BME280;63591;50.080;8.286;2022-11-20T11:10:29;99198.53;;;14.22;59.14
75026;BME280;63591;50.080;8.286;2022-11-20T11:12:57;99188.16;;;14.20;59.18
75026;BME280;63591;50.080;8.286;2022-11-20T11:15:37;99190.97;;;14.19;59.51
75026;BME280;63591;50.080;8.286;2022-11-20T11:18:03;99186.34;;;14.21;59.33
75026;BME280;63591;50.080;8.286;2022-11-20T11:20:29;99175.59;;;14.22;59.31
75026;BME280;63591;50.080;8.286;2022-11-20T11:22:56;99178.25;;;14.22;59.67
75026;BME280;63591;50.080;8.286;2022-11-20T11:25:28;99178.25;;;14.22;59.25
75026;BME280;63591;50.080;8.286;2022-11-20T11:27:55;99179.03;;;14.23;59.62
75026;BME280;63591;50.080;8.286;2022-11-20T11:30:23;99175.41;;;14.24;59.71
75026;BME280;63591;50.080;8.286;2022-11-20T11:32:49;99170.94;;;14.24;59.63
75026;BME280;63591;50.080;8.286;2022-11-20T11:35:32;99167.50;;;14.24;59.91
75026;BME280;63591;50.080;8.286;2022-11-20T11:38:06;99168.94;;;14.26;59.53
75026;BME280;63591;50.080;8.286;2022-11-20T11:40:34;99166.31;;;14.26;60.07
75026;BME280;63591;50.080;8.286;2022-11-20T11:43:04;99168.13;;;14.26;60.04
75026;BME280;63591;50.080;8.286;2022-11-20T11:45:30;99164.50;;;14.27;59.76
75026;BME280;63591;50.080;8.286;2022-11-20T11:47:57;99156.41;;;14.28;59.81
75026;BME280;63591;50.080;8.286;2022-11-20T11:50:25;99143.19;;;14.28;59.86
75026;BME280;63591;50.080;8.286;2022-11-20T11:52:58;99148.47;;;14.28;60.04
75026;BME280;63591;50.080;8.286;2022-11-20T11:55:30;99150.09;;;14.30;59.63
75026;BME280;63591;50.080;8.286;2022-11-20T11:58:09;99151.91;;;14.29;59.98
75026;BME280;63591;50.080;8.286;2022-11-20T12:00:39;99138.72;;;14.29;60.03
75026;BME280;63591;50.080;8.286;2022-11-20T12:03:18;99145.63;;;14.30;60.02
75026;BME280;63591;50.080;8.286;2022-11-20T12:05:49;99137.69;;;14.30;59.96
75026;BME280;63591;50.080;8.286;2022-11-20T12:08:43;99138.09;;;14.27;60.04
75026;BME280;63591;50.080;8.286;2022-11-20T12:11:18;99136.91;;;14.30;60.16
75026;BME280;63591;50.080;8.286;2022-11-20T12:13:55;99141.34;;;14.29;60.20
75026;BME280;63591;50.080;8.286;2022-11-20T12:16:23;99128.81;;;14.31;60.05
75026;BME280;63591;50.080;8.286;2022-11-20T12:18:51;99131.44;;;14.31;60.29
75026;BME280;63591;50.080;8.286;2022-11-20T12:21:31;99127.97;;;14.31;60.11
75026;BME280;63591;50.080;8.286;2022-11-20T12:24:30;99125.50;;;14.29;60.37
75026;BME280;63591;50.080;8.286;2022-11-20T12:32:44;99133.91;;;14.33;60.52
75026;BME280;63591;50.080;8.286;2022-11-20T12:40:28;99108.06;;;14.28;60.28
75026;BME280;63591;50.080;8.286;2022-11-20T12:48:42;99111.53;;;14.28;60.41
75026;BME280;63591;50.080;8.286;2022-11-20T12:51:48;99112.69;;;14.26;60.07
75026;BME280;63591;50.080;8.286;2022-11-20T12:54:51;99111.88;;;14.25;60.17
75026;BME280;63591;50.080;8.286;2022-11-20T12:57:33;99106.25;;;14.28;59.97
75026;BME280;63591;50.080;8.286;2022-11-20T13:00:21;99110.69;;;14.28;60.57
75026;BME280;63591;50.080;8.286;2022-11-20T13:05:58;99095.28;;;14.32;60.46
75026;BME280;63591;50.080;8.286;2022-11-20T13:08:28;99096.28;;;14.31;60.51
75026;BME280;63591;50.080;8.286;2022-11-20T13:15:02;99085.13;;;14.28;60.14
75026;BME280;63591;50.080;8.286;2022-11-20T13:17:33;99079.00;;;14.28;60.48
75026;BME280;63591;50.080;8.286;2022-11-20T13:20:01;99077.00;;;14.30;60.37
75026;BME280;63591;50.080;8.286;2022-11-20T13:22:41;99087.53;;;14.30;60.27
75026;BME280;63591;50.080;8.286;2022-11-20T13:25:32;99090.19;;;14.30;60.55
75026;BME280;63591;50.080;8.286;2022-11-20T13:28:00;99085.72;;;14.31;60.36
75026;BME280;63591;50.080;8.286;2022-11-20T13:30:29;99084.91;;;14.30;60.35
75026;BME280;63591;50.080;8.286;2022-11-20T13:33:09;99080.81;;;14.27;60.53
75026;BME280;63591;50.080;8.286;2022-11-20T13:36:04;99080.63;;;14.29;60.29
75026;BME280;63591;50.080;8.286;2022-11-20T13:38:43;99085.13;;;14.28;60.26
75026;BME280;63591;50.080;8.286;2022-11-20T13:41:09;99070.91;;;14.30;60.57
75026;BME280;63591;50.080;8.286;2022-11-20T13:43:57;99079.63;;;14.30;60.83
75026;BME280;63591;50.080;8.286;2022-11-20T13:46:23;99072.53;;;14.31;60.50
75026;BME280;63591;50.080;8.286;2022-11-20T13:48:50;99069.91;;;14.31;60.20
75026;BME280;63591;50.080;8.286;2022-11-20T13:54:04;99062.81;;;14.31;60.54
75026;BME280;63591;50.080;8.286;2022-11-20T14:02:21;99061.59;;;14.34;60.48
75026;BME280;63591;50.080;8.286;2022-11-20T14:04:49;99055.31;;;14.35;60.31